Station: Hobart Airport  

  Atmospheric Gas Attenuation - ITU Rec 676-11   ----------------- dB/100km -----------------
Date Time Temp RH % AH g/m3 Dew Point Wind Direction Speed kph Gust kph Barometer mB Rainfall Since 9am 24GHz 47GHz 76GHz 122GHz 134GHz 241GHz
08/05 12:40 12.9 60 6.76 5.3 22 26 1014.9 0 15.7 23.3 33.1 86.5 75.9 259.5
08/05 12:30 13.3 58 6.7 5.2 24 32 1014.8 0 15.6 23.1 32.7 85.5 74.8 255.5
08/05 12:20 13.3 58 6.7 5.2 24 28 1014.8 0 15.6 23.1 32.7 85.5 74.8 255.5
08/05 12:10 13.5 57 6.67 5.2 19 24 1014.9 0 15.5 23.0 32.5 85.0 74.2 253.6
08/05 12:00 13.2 58 6.66 5.1 20 32 1014.8 0 15.5 23.1 32.6 85.2 74.3 254.1
08/05 11:50 13.2 59 6.77 5.4 17 19 1014.8 0 15.7 23.2 33.0 86.3 75.7 258.9
08/05 11:40 12.8 61 6.83 5.5 19 26 1014.8 0 15.9 23.4 33.4 87.3 76.9 262.8
08/05 11:30 12.8 63 7.06 5.9 20 30 1014.7 0 16.3 23.8 34.3 89.7 79.7 273.0
08/05 11:20 12.6 62 6.86 5.5 24 32 1014.5 0 15.9 23.5 33.6 87.8 77.4 264.8
08/05 11:10 12.6 62 6.86 5.5 22 24 1014.4 0 15.9 23.5 33.6 87.8 77.4 264.7
08/05 11:00 12.5 60 6.6 5 24 32 1014.3 0 15.4 23.1 32.6 85.3 74.2 253.6
08/05 10:50 12.7 60 6.68 5.1 28 35 1014.2 0 15.5 23.2 32.9 85.9 75.0 256.5
08/05 10:40 12.7 61 6.79 5.4 15 20 1014.2 0 15.8 23.4 33.3 87.0 76.4 261.3
08/05 10:30 12.6 59 6.53 4.8 22 30 1014.1 0 15.2 23.0 32.3 84.5 73.3 250.2
08/05 10:20 12.9 60 6.76 5.3 19 22 1014 0 15.7 23.3 33.1 86.4 75.8 259.3
08/05 10:10 12.1 62 6.65 5 22 30 1013.9 0 15.5 23.3 33.0 86.2 75.2 257.0
08/05 10:00 12.1 64 6.86 5.5 22 32 1013.8 0 15.9 23.6 33.8 88.3 77.8 266.3
08/05 09:50 11.7 65 6.8 5.3 22 26 1014 0 15.8 23.6 33.7 88.2 77.5 265.0
08/05 09:40 11.6 64 6.65 5 22 24 1013.8 0 15.5 23.4 33.2 86.7 75.7 258.6
08/05 09:30 11.7 64 6.69 5.1 20 32 1013.7 0 15.6 23.5 33.3 87.0 76.1 260.0
08/05 09:20 11.7 64 6.69 5.1 15 19 1013.6 0 15.6 23.5 33.3 87.0 76.1 260.0
08/05 09:10 11.5 67 6.92 5.6 15 17 1013.4 0 16.1 23.9 34.2 89.6 79.2 270.9
08/05 09:00 11.3 67 6.84 5.4 24 35 1013.2 0 15.9 23.8 34.0 89.0 78.4 267.9
08/05 08:50 11.6 68 7.07 5.9 26 30 1013.1 0.8 16.4 24.1 34.8 91.0 81.0 277.2
08/05 08:40 10.9 70 6.96 5.7 24 28 1012.9 0.8 16.2 24.1 34.6 90.6 80.3 274.6
08/05 08:30 10.7 69 6.78 5.3 28 37 1012.6 0.8 15.8 23.8 34.0 88.9 78.1 267.1
08/05 08:20 10.7 71 6.98 5.7 24 28 1012.5 0.8 16.3 24.1 34.8 91.0 80.7 276.1
08/05 08:10 10.6 71 6.93 5.6 26 32 1012.3 0.8 16.2 24.1 34.6 90.6 80.2 274.2
08/05 08:00 10.7 70 6.88 5.5 22 32 1012.1 0.8 16.0 24.0 34.4 89.9 79.4 271.5
08/05 07:50 10.6 70 6.83 5.4 22 24 1011.9 0.8 15.9 23.9 34.2 89.5 78.8 269.6
08/05 07:40 10.6 70 6.83 5.4 20 24 1011.7 0.8 15.9 23.9 34.2 89.5 78.8 269.5
08/05 07:30 10.6 71 6.93 5.6 30 43 1011.3 0.8 16.2 24.0 34.6 90.5 80.1 273.9
08/05 07:20 10.5 71 6.89 5.5 24 32 1011.3 0.8 16.1 24.0 34.5 90.2 79.7 272.5
08/05 07:10 10.3 72 6.9 5.5 22 24 1011 0.8 16.1 24.1 34.6 90.5 80.0 273.6
08/05 07:00 10.2 74 7.04 5.8 24 37 1011 0.8 16.4 24.3 35.2 92.1 81.9 280.3
08/05 06:50 10.3 74 7.09 5.9 24 26 1010.9 0.8 16.5 24.4 35.3 92.5 82.5 282.2
08/05 06:40 10.1 76 7.19 6.1 24 28 1010.7 0.8 16.7 24.6 35.8 93.8 84.0 287.5
08/05 06:30 10.1 76 7.19 6.1 28 43 1010.5 0.8 16.7 24.6 35.8 93.8 83.9 287.4
08/05 06:20 9.9 79 7.38 6.4 22 28 1010.5 0.8 17.2 24.9 36.6 96.0 86.7 297.0
08/05 06:10 9.9 79 7.38 6.4 24 30 1010.3 0.8 17.2 24.9 36.6 96.0 86.7 296.9
08/05 06:00 9.9 80 7.47 6.6 24 33 1010.1 0.8 17.3 25.1 37.0 97.0 87.8 301.1
08/05 05:50 10 78 7.33 6.3 20 22 1009.8 0.6 17.0 24.8 36.4 95.3 85.9 294.1
08/05 05:40 9.9 78 7.28 6.2 19 20 1009.6 0.6 16.9 24.7 36.2 94.9 85.3 292.1
08/05 05:30 10.1 76 7.19 6.1 24 37 1009.6 0.6 16.7 24.5 35.8 93.7 83.9 287.2
08/05 05:20 10.4 74 7.13 6 20 24 1009.3 0.6 16.6 24.3 35.4 92.6 82.8 283.3
08/05 05:10 11.1 68 6.85 5.4 17 22 1009.2 0.6 16.0 23.7 34.0 88.9 78.4 268.2
08/05 05:00 11 68 6.81 5.3 20 37 1009 0.6 15.9 23.7 33.8 88.6 78.0 266.6
08/05 04:50 11.2 66 6.69 5.1 24 28 1008.7 0.6 15.6 23.4 33.3 87.1 76.2 260.6
08/05 04:40 11.2 66 6.69 5.1 19 22 1008.6 0.6 15.6 23.4 33.3 87.1 76.2 260.5
08/05 04:30 11.4 64 6.57 4.8 22 33 1008.2 0.6 15.4 23.2 32.7 85.6 74.5 254.5
08/05 04:20 11.3 65 6.63 5 19 22 1008 0.6 15.5 23.3 33.0 86.3 75.3 257.4
08/05 04:10 11.4 66 6.78 5.3 20 26 1007.8 0.6 15.8 23.5 33.5 87.7 77.1 263.7
08/05 04:00 11.4 66 6.78 5.3 22 35 1007.7 0.6 15.8 23.5 33.5 87.7 77.1 263.7
08/05 03:50 11.3 67 6.84 5.4 22 26 1007.4 0.6 15.9 23.6 33.8 88.4 78.0 266.6
08/05 03:40 11.4 66 6.78 5.3 28 32 1007.4 0.6 15.8 23.5 33.5 87.7 77.1 263.6
08/05 03:30 11.4 67 6.88 5.5 22 35 1007.3 0.6 16.0 23.6 33.9 88.7 78.4 268.0
08/05 03:20 11.6 66 6.86 5.5 22 28 1007.2 0.6 16.0 23.5 33.7 88.3 77.9 266.5
08/05 03:10 11.5 68 7.02 5.8 24 26 1007 0.6 16.3 23.8 34.4 90.0 80.0 273.9
08/05 03:00 11.4 69 7.08 5.9 17 22 1007 0.6 16.5 23.9 34.6 90.7 80.9 276.9
08/05 02:50 11.7 68 7.11 6 19 22 1006.9 0.6 16.5 23.9 34.6 90.7 81.0 277.2
08/05 02:40 11.7 68 7.11 6 24 28 1006.7 0.6 16.5 23.9 34.6 90.7 80.9 277.2
08/05 02:30 11.8 67 7.05 5.9 32 44 1006.4 0.6 16.4 23.7 34.3 89.9 80.1 274.1
08/05 02:20 12 66 7.03 5.9 33 39 1006.2 0.6 16.3 23.6 34.2 89.5 79.6 272.4
08/05 02:10 11.8 70 7.37 6.5 28 32 1006.3 0.6 17.1 24.2 35.6 93.2 84.1 288.4
08/05 02:00 12 70 7.46 6.7 28 37 1006.1 0.6 17.2 24.3 35.8 93.9 85.1 291.7
08/05 01:50 12.3 68 7.38 6.6 35 41 1005.9 0.6 17.1 24.1 35.4 92.7 83.7 286.9
08/05 01:40 12.1 69 7.4 6.6 32 37 1005.9 0.6 17.1 24.2 35.5 93.1 84.2 288.6
08/05 01:30 12.2 67 7.23 6.3 28 39 1005.7 0.6 16.7 23.9 34.8 91.2 81.9 280.5
08/05 01:20 12.1 69 7.4 6.6 30 33 1005.7 0.6 17.1 24.2 35.5 93.1 84.2 288.5
08/05 01:10 12.1 68 7.29 6.4 26 30 1005.5 0.6 16.9 24.0 35.1 92.0 82.7 283.5
08/05 01:00 11.8 70 7.37 6.5 26 33 1005.5 0.6 17.1 24.2 35.5 93.1 84.1 288.2
08/05 00:50 11.8 70 7.37 6.5 24 28 1005.4 0.6 17.1 24.2 35.5 93.1 84.1 288.2
08/05 00:40 12.1 69 7.4 6.6 30 32 1005.5 0.6 17.1 24.2 35.5 93.1 84.2 288.5
08/05 00:30 11.9 69 7.31 6.4 24 33 1005.4 0.6 16.9 24.1 35.2 92.4 83.2 285.1
08/05 00:20 10.6 78 7.61 6.9 19 20 1005.5 0.6 17.6 24.9 37.0 97.1 88.6 303.7
08/05 00:10 10.9 81 8.06 7.8 24 32 1005.2 0.6 18.6 25.5 38.7 101.6 94.2 323.4
08/05 00:00 8.2 89 7.46 6.5 9 15 1005.3 0.6 17.4 25.3 37.5 98.5 89.3 306.0
07/05 23:50 8.1 88 7.33 6.2 7 9 1005.3 0.6 17.1 25.2 37.1 97.2 87.6 300.2
07/05 23:40 8.8 88 7.66 6.9 7 7 1005.2 0.6 17.8 25.5 38.1 99.9 91.3 313.1
07/05 23:30 8.6 87 7.48 6.6 6 9 1005.1 0.6 17.4 25.3 37.4 98.2 89.1 305.3
07/05 23:20 9.3 86 7.73 7.1 6 7 1005.3 0.6 17.9 25.5 38.1 100.1 91.7 314.4
07/05 23:10 9.4 85 7.69 7 7 9 1005.2 0.6 17.8 25.4 37.9 99.5 91.0 312.1
07/05 23:00 9.4 84 7.6 6.8 9 17 1005.3 0.6 17.7 25.2 37.5 98.5 89.8 307.9
07/05 22:50 9.4 83 7.51 6.7 11 15 1005 0.6 17.5 25.1 37.2 97.5 88.6 303.6
07/05 22:40 9.4 83 7.51 6.7 15 17 1005.2 0.4 17.5 25.1 37.2 97.5 88.6 303.6
07/05 22:30 9.3 85 7.64 6.9 22 30 1005.2 0.4 17.7 25.3 37.7 99.1 90.4 310.1
07/05 22:20 9.2 85 7.59 6.8 24 26 1005.2 0.4 17.6 25.3 37.6 98.6 89.9 308.2
07/05 22:10 9.3 84 7.55 6.7 24 28 1005.3 0.4 17.6 25.2 37.4 98.1 89.2 305.9
07/05 22:00 9.7 80 7.38 6.4 24 30 1005.4 0.2 17.2 24.8 36.5 95.8 86.5 296.5
07/05 21:50 9.3 80 7.19 6 20 26 1005.4 0.2 16.8 24.6 35.9 94.2 84.4 289.1
07/05 21:40 9.5 78 7.1 5.9 22 26 1005.5 0.2 16.6 24.4 35.5 93.0 83.0 284.3
07/05 21:30 9.2 79 7.06 5.8 26 33 1005.3 0 16.5 24.4 35.5 92.9 82.8 283.4
07/05 21:20 9.6 72 6.6 4.8 24 28 1005.2 0 15.5 23.6 33.5 87.6 76.4 261.0
07/05 21:10 9.6 71 6.51 4.6 26 32 1005.5 0 15.3 23.4 33.1 86.7 75.3 257.0
07/05 21:00 9.3 70 6.29 4.1 26 37 1005.5 0 14.8 23.2 32.4 84.7 72.7 248.1
07/05 20:50 9.5 68 6.19 3.9 24 32 1005.4 0 14.6 23.0 31.9 83.5 71.3 243.0
07/05 20:40 9.5 69 6.28 4.1 22 30 1005.6 0 14.8 23.1 32.3 84.4 72.4 247.1
07/05 20:30 9.4 67 6.06 3.6 20 28 1005.5 0 14.3 22.8 31.5 82.3 69.7 237.6
07/05 20:20 9.3 66 5.93 3.3 22 26 1005.9 0 14.1 22.6 31.0 81.1 68.2 232.2
07/05 20:10 9 66 5.82 3 22 28 1005.7 0 13.8 22.5 30.7 80.2 67.1 228.2

Last Refresh: 08-May-2026 12:10:18

Bureau of Meteorology